createdAt,value
2022-12-23T00:03:16.017Z,8.79
2022-12-23T00:07:17.580Z,8.68
2022-12-23T00:11:20.373Z,8.80
2022-12-23T00:15:21.813Z,8.90
2022-12-23T00:19:23.331Z,8.77
2022-12-23T00:23:25.335Z,8.76
2022-12-23T00:27:26.774Z,8.47
2022-12-23T00:31:28.472Z,8.50
2022-12-23T00:35:32.070Z,8.73
2022-12-23T00:39:55.073Z,8.80
2022-12-23T00:43:57.101Z,8.66
2022-12-23T00:48:17.388Z,8.86
2022-12-23T00:52:18.744Z,9.00
2022-12-23T00:56:20.177Z,8.75
2022-12-23T01:00:42.081Z,8.86
2022-12-23T01:05:02.169Z,8.49
2022-12-23T01:09:03.745Z,8.38
2022-12-23T01:13:05.893Z,8.23
2022-12-23T01:17:08.114Z,7.94
2022-12-23T01:21:10.621Z,8.30
2022-12-23T01:25:12.371Z,8.27
2022-12-23T01:29:13.884Z,8.12
2022-12-23T01:33:15.303Z,8.22
2022-12-23T01:37:16.748Z,8.44
2022-12-23T01:41:43.111Z,8.43
2022-12-23T01:45:45.017Z,8.29
2022-12-23T01:49:48.673Z,8.27
2022-12-23T01:53:56.274Z,7.94
2022-12-23T01:58:09.360Z,8.30
2022-12-23T02:02:30.358Z,8.35
2022-12-23T02:06:56.752Z,8.12
2022-12-23T02:11:43.107Z,8.35
2022-12-23T02:16:17.750Z,7.85
2022-12-23T02:20:40.203Z,7.76
2022-12-23T02:25:11.870Z,7.76
2022-12-23T02:29:19.416Z,7.57
2022-12-23T02:33:39.495Z,8.01
2022-12-23T02:38:01.917Z,8.05
2022-12-23T02:42:14.380Z,8.23
2022-12-23T02:46:33.447Z,7.96
2022-12-23T02:50:37.867Z,7.59
2022-12-23T02:54:45.741Z,7.58
2022-12-23T02:59:01.633Z,7.79
2022-12-23T03:03:03.281Z,7.89
2022-12-23T03:07:08.179Z,7.97
2022-12-23T03:11:15.067Z,7.87
2022-12-23T03:15:28.246Z,7.80
2022-12-23T03:19:47.926Z,7.55
2022-12-23T03:24:26.081Z,7.83
2022-12-23T03:28:45.567Z,7.76
2022-12-23T03:32:52.885Z,7.59
2022-12-23T03:36:58.796Z,7.54
2022-12-23T03:41:07.736Z,7.82
2022-12-23T03:49:43.828Z,8.07
2022-12-23T03:54:02.207Z,8.18
2022-12-23T03:58:30.425Z,8.17
2022-12-23T04:02:59.978Z,8.06
2022-12-23T04:07:19.271Z,8.34
2022-12-23T04:11:21.011Z,8.18
2022-12-23T04:15:25.267Z,8.52
2022-12-23T04:19:27.027Z,8.47
2022-12-23T04:23:28.559Z,8.54
2022-12-23T04:27:30.100Z,8.77
2022-12-23T04:31:31.871Z,8.62
2022-12-23T04:35:33.366Z,8.72
2022-12-23T04:39:34.795Z,8.53
2022-12-23T04:43:36.230Z,8.53
2022-12-23T04:47:37.709Z,8.29
2022-12-23T04:51:39.113Z,8.27
2022-12-23T04:55:40.590Z,8.21
2022-12-23T04:59:42.097Z,8.26
2022-12-23T05:03:43.568Z,8.40
2022-12-23T05:07:44.978Z,8.54
2022-12-23T05:11:46.552Z,8.46
2022-12-23T05:15:53.077Z,8.39
2022-12-23T05:19:54.549Z,8.54
2022-12-23T05:23:56.020Z,8.38
2022-12-23T05:27:57.469Z,8.65
2022-12-23T05:31:59.027Z,8.67
2022-12-23T05:36:01.207Z,8.84
2022-12-23T05:40:02.817Z,8.86
2022-12-23T05:44:04.590Z,8.89
2022-12-23T05:48:06.766Z,8.81
2022-12-23T05:52:08.259Z,8.65
2022-12-23T05:56:09.683Z,8.67
2022-12-23T06:00:11.571Z,8.65
2022-12-23T06:04:16.100Z,8.80
2022-12-23T06:08:18.326Z,8.50
2022-12-23T06:12:19.740Z,8.42
2022-12-23T06:16:21.364Z,8.27
2022-12-23T06:20:23.187Z,8.43
2022-12-23T06:24:24.654Z,8.51
2022-12-23T06:28:26.640Z,8.54
2022-12-23T06:32:31.488Z,8.79
2022-12-23T06:36:35.950Z,8.92
2022-12-23T06:40:37.532Z,8.74
2022-12-23T06:44:38.955Z,8.80
2022-12-23T06:48:40.391Z,8.93
2022-12-23T06:52:42.947Z,9.02
2022-12-23T06:56:44.675Z,8.75
2022-12-23T07:00:46.506Z,8.79
2022-12-23T07:04:49.313Z,8.54
2022-12-23T07:08:51.106Z,8.78
2022-12-23T07:12:54.045Z,8.94
2022-12-23T07:16:55.542Z,8.70
2022-12-23T07:21:00.148Z,8.92
2022-12-23T07:25:02.468Z,9.13
2022-12-23T07:29:04.566Z,9.09
2022-12-23T07:33:05.987Z,9.01
2022-12-23T07:37:07.904Z,9.12
2022-12-23T07:41:10.583Z,9.12
2022-12-23T07:45:12.616Z,9.17
2022-12-23T07:49:14.465Z,8.95
2022-12-23T07:53:16.151Z,9.38
2022-12-23T07:57:17.615Z,9.28
2022-12-23T08:01:20.193Z,9.49
2022-12-23T08:05:22.019Z,9.36
2022-12-23T08:09:23.497Z,9.13
2022-12-23T08:13:25.093Z,9.37
2022-12-23T08:17:27.858Z,9.17
2022-12-23T08:21:29.571Z,9.26
2022-12-23T08:25:31.155Z,9.29
2022-12-23T08:29:36.580Z,9.26
2022-12-23T08:33:39.331Z,9.19
2022-12-23T08:37:40.858Z,9.30
2022-12-23T08:41:45.019Z,9.51
2022-12-23T08:45:46.592Z,9.40
2022-12-23T08:49:48.702Z,9.49
2022-12-23T08:53:56.288Z,9.45
2022-12-23T08:58:01.173Z,9.24
2022-12-23T09:02:03.311Z,9.14
2022-12-23T09:06:07.393Z,9.11
2022-12-23T09:10:08.924Z,9.07
2022-12-23T09:14:10.734Z,9.18
2022-12-23T09:18:12.299Z,8.97
2022-12-23T09:22:13.755Z,9.05
2022-12-23T09:26:23.298Z,8.90
2022-12-23T09:30:25.155Z,9.12
2022-12-23T09:34:26.787Z,8.91
2022-12-23T09:38:28.395Z,9.02
2022-12-23T09:42:49.570Z,8.96
2022-12-23T09:46:56.182Z,9.05
2022-12-23T09:50:57.730Z,9.17
2022-12-23T09:55:00.552Z,9.05
2022-12-23T09:59:30.963Z,9.04
2022-12-23T10:03:48.910Z,8.97
2022-12-23T10:08:15.205Z,9.06
2022-12-23T10:12:39.681Z,9.33
2022-12-23T10:16:49.350Z,9.23
2022-12-23T10:20:58.388Z,9.14
2022-12-23T10:25:03.183Z,8.96
2022-12-23T10:29:19.414Z,8.87
2022-12-23T10:33:29.304Z,9.10
2022-12-23T10:37:51.530Z,8.99
2022-12-23T10:42:21.524Z,9.05
2022-12-23T10:46:55.577Z,9.07
2022-12-23T10:51:03.112Z,8.94
2022-12-23T10:55:05.562Z,9.12
2022-12-23T10:59:14.176Z,9.30
2022-12-23T11:03:38.627Z,9.18
2022-12-23T11:07:45.426Z,9.22
2022-12-23T11:12:04.559Z,9.02
2022-12-23T11:16:27.091Z,8.85
2022-12-23T11:20:29.257Z,8.88
2022-12-23T11:24:39.575Z,8.83
2022-12-23T11:28:50.435Z,8.97
2022-12-23T11:32:52.482Z,9.38
2022-12-23T11:37:05.239Z,9.10
2022-12-23T11:41:08.836Z,9.22
2022-12-23T11:45:19.580Z,9.03
2022-12-23T11:49:23.757Z,9.01
2022-12-23T11:53:27.555Z,9.13
2022-12-23T11:57:39.441Z,9.11
2022-12-23T12:01:47.950Z,9.16
2022-12-23T12:06:02.377Z,9.07
2022-12-23T12:10:04.866Z,8.99
2022-12-23T12:14:08.571Z,8.70
2022-12-23T12:18:15.252Z,8.67
2022-12-23T12:22:29.486Z,8.61
2022-12-23T12:26:34.506Z,8.53
2022-12-23T12:30:49.163Z,8.54
2022-12-23T12:35:06.331Z,8.63
2022-12-23T12:39:15.494Z,8.73
2022-12-23T12:43:31.921Z,8.17
2022-12-23T12:47:57.064Z,8.51
2022-12-23T12:52:16.175Z,8.60
2022-12-23T12:56:48.505Z,8.60
2022-12-23T13:00:58.777Z,8.55
2022-12-23T13:05:15.531Z,8.58
2022-12-23T13:09:49.257Z,8.43
2022-12-23T13:14:19.026Z,8.42
2022-12-23T13:18:39.080Z,8.39
2022-12-23T13:22:40.878Z,8.41
2022-12-23T13:27:11.927Z,8.43
2022-12-23T13:32:01.475Z,7.93
2022-12-23T13:36:31.663Z,8.22
2022-12-23T13:40:42.714Z,8.00
2022-12-23T13:44:44.862Z,7.79
2022-12-23T13:49:08.082Z,7.73
2022-12-23T13:53:34.244Z,7.85
2022-12-23T13:57:35.652Z,7.58
2022-12-23T14:01:41.111Z,7.57
2022-12-23T14:05:45.831Z,7.60
2022-12-23T14:09:56.130Z,7.76
2022-12-23T14:14:00.968Z,7.57
2022-12-23T14:18:18.130Z,7.50
2022-12-23T14:23:01.331Z,7.23
2022-12-23T14:27:17.819Z,6.85
2022-12-23T14:31:40.726Z,6.77
2022-12-23T14:35:43.139Z,6.65
2022-12-23T14:39:44.732Z,6.58
2022-12-23T14:43:46.211Z,6.38
2022-12-23T14:47:47.688Z,6.25
2022-12-23T14:51:52.525Z,6.08
2022-12-23T14:56:15.048Z,6.05
2022-12-23T15:00:17.639Z,5.89
2022-12-23T15:04:24.793Z,5.77
2022-12-23T15:08:42.912Z,5.79
2022-12-23T15:12:47.954Z,5.45
2022-12-23T15:16:49.503Z,5.48
2022-12-23T15:21:12.381Z,5.34
2022-12-23T15:25:32.667Z,5.16
2022-12-23T15:29:34.826Z,5.13
2022-12-23T15:34:02.321Z,4.85
2022-12-23T15:37:59.928Z,5.12
2022-12-23T15:42:02.243Z,5.02
2022-12-23T15:46:28.712Z,5.06
2022-12-23T15:50:40.209Z,5.05
2022-12-23T15:54:53.397Z,5.08
2022-12-23T15:58:56.522Z,4.82
2022-12-23T16:03:01.117Z,4.77
2022-12-23T16:07:03.657Z,4.60
2022-12-23T16:11:20.802Z,4.35
2022-12-23T16:15:31.835Z,4.19
2022-12-23T16:19:40.329Z,3.92
2022-12-23T16:23:50.192Z,3.86
2022-12-23T16:27:56.028Z,3.77
2022-12-23T16:32:01.738Z,3.90
2022-12-23T16:36:32.231Z,3.94
2022-12-23T16:40:33.693Z,3.77
2022-12-23T16:44:35.116Z,3.85
2022-12-23T16:48:40.069Z,3.73
2022-12-23T16:52:41.585Z,3.96
2022-12-23T16:56:46.373Z,4.04
2022-12-23T17:00:48.717Z,4.12
2022-12-23T17:04:51.153Z,3.48
2022-12-23T17:08:53.244Z,3.50
2022-12-23T17:12:54.730Z,3.68
2022-12-23T17:16:56.292Z,3.53
2022-12-23T17:20:58.859Z,3.95
2022-12-23T17:25:00.279Z,3.78
2022-12-23T17:29:03.555Z,3.65
2022-12-23T17:33:05.294Z,3.52
2022-12-23T17:37:20.522Z,3.50
2022-12-23T17:41:30.835Z,3.10
2022-12-23T17:45:32.340Z,2.83
2022-12-23T17:49:33.896Z,3.36
2022-12-23T17:53:35.334Z,3.45
2022-12-23T17:57:36.782Z,3.74
2022-12-23T18:01:38.714Z,3.97
2022-12-23T18:05:40.249Z,3.84
2022-12-23T18:09:41.784Z,3.88
2022-12-23T18:13:43.559Z,3.47
2022-12-23T18:17:45.141Z,3.32
2022-12-23T18:21:47.222Z,3.67
2022-12-23T18:25:48.750Z,3.75
2022-12-23T18:29:51.669Z,3.90
2022-12-23T18:33:53.262Z,4.12
2022-12-23T18:37:55.402Z,4.33
2022-12-23T18:41:56.829Z,4.37
2022-12-23T18:45:58.311Z,4.56
2022-12-23T18:49:59.745Z,4.38
2022-12-23T18:54:01.173Z,4.43
2022-12-23T18:58:02.637Z,4.30
2022-12-23T19:02:04.650Z,4.18
2022-12-23T19:06:08.085Z,3.99
2022-12-23T19:10:11.906Z,3.89
2022-12-23T19:14:13.702Z,3.50
2022-12-23T19:18:17.672Z,3.53
2022-12-23T19:26:48.857Z,3.11
2022-12-23T19:30:50.809Z,3.44
2022-12-23T19:34:52.442Z,3.03
2022-12-23T19:38:56.096Z,3.12
2022-12-23T19:42:57.648Z,3.28
2022-12-23T19:46:59.388Z,3.38
2022-12-23T19:51:19.236Z,3.47
2022-12-23T19:55:20.779Z,3.36
2022-12-23T19:59:22.465Z,3.33
2022-12-23T20:03:23.914Z,3.06
2022-12-23T20:07:25.371Z,3.32
2022-12-23T20:11:30.269Z,3.12
2022-12-23T20:15:31.753Z,2.91
2022-12-23T20:19:34.241Z,2.81
2022-12-23T20:23:35.737Z,2.66
2022-12-23T20:27:38.660Z,2.99
2022-12-23T20:31:40.836Z,2.96
2022-12-23T20:35:42.414Z,3.06
2022-12-23T20:39:43.839Z,2.67
2022-12-23T20:43:56.929Z,2.91
2022-12-23T20:48:04.862Z,3.11
2022-12-23T20:52:06.409Z,2.99
2022-12-23T20:56:12.189Z,3.00
2022-12-23T21:00:14.208Z,2.94
2022-12-23T21:04:16.438Z,2.89
2022-12-23T21:08:17.846Z,2.89
2022-12-23T21:12:19.331Z,2.80
2022-12-23T21:16:20.860Z,2.71
2022-12-23T21:20:22.321Z,2.71
2022-12-23T21:24:23.820Z,2.45
2022-12-23T21:28:25.247Z,2.54
2022-12-23T21:32:26.982Z,2.31
2022-12-23T21:36:31.409Z,2.69
2022-12-23T21:40:32.905Z,2.86
2022-12-23T21:44:35.411Z,2.95
2022-12-23T21:48:37.733Z,2.99
2022-12-23T21:52:39.166Z,3.01
2022-12-23T21:56:41.514Z,3.00
2022-12-23T22:00:45.182Z,2.74
2022-12-23T22:04:46.646Z,2.97
2022-12-23T22:08:49.251Z,3.00
2022-12-23T22:12:50.708Z,2.97
2022-12-23T22:16:52.550Z,2.97
2022-12-23T22:20:54.046Z,3.06
2022-12-23T22:24:55.487Z,2.80
2022-12-23T22:28:59.624Z,2.95
2022-12-23T22:33:01.123Z,2.87
2022-12-23T22:37:02.829Z,2.89
2022-12-23T22:41:05.798Z,2.98
2022-12-23T22:45:09.189Z,2.92
2022-12-23T22:49:12.902Z,2.98
2022-12-23T22:53:14.476Z,2.90
2022-12-23T22:57:15.949Z,2.89
2022-12-23T23:01:29.286Z,2.83
2022-12-23T23:05:30.824Z,2.50
2022-12-23T23:09:32.280Z,2.89
2022-12-23T23:13:35.125Z,2.69
2022-12-23T23:17:36.545Z,3.02
2022-12-23T23:21:38.017Z,3.05
2022-12-23T23:25:39.572Z,2.69
2022-12-23T23:29:41.345Z,2.69
2022-12-23T23:33:43.008Z,2.49
2022-12-23T23:37:44.420Z,2.67
2022-12-23T23:41:46.029Z,2.64
2022-12-23T23:45:47.586Z,2.64
2022-12-23T23:49:49.043Z,2.25
2022-12-23T23:53:50.581Z,2.68
2022-12-23T23:57:52.014Z,2.66
